EWG43N EDDL-LFLL
Flight info
| Callsign | EWG43N |
|---|---|
| Flight time | 1h 12m |
| Altitude | 33000 |
| Route | MODRU7Z/05R MODRU Z283 SOPOK DCT ROUSY DCT GTQ DCT POGOL DCT LASAT DCT MOROK Z24 BOLGI T14 MILPA |
| Aircraft | A319/M-SDE2E3FGIJ1RWXY/EB1 |
Departure
| Time | 2026-05-06 10:19 |
|---|---|
| Airport | Düsseldorf Airport (EDDL) |
Arrival
| Time | 2026-05-06 11:31 |
|---|---|
| Airport | Lyon Saint-Exupéry Airport (LFLL) |
| Time | Latitude | Longitude | Altitude | Speed | Heading |
|---|---|---|---|---|---|
| 2026-05-06 10:02 | 51.28469 | 6.77028 | 129 ft | 0 kts | 323° |
| 2026-05-06 10:08 | 51.28489 | 6.77085 | 125 ft | 0 kts | 322° |
| 2026-05-06 10:11 | 51.28473 | 6.77106 | 125 ft | 4 kts | 312° |
| 2026-05-06 10:11 | 51.28458 | 6.77140 | 129 ft | 4 kts | 283° |
| 2026-05-06 10:12 | 51.28460 | 6.77174 | 123 ft | 1 kts | 233° |
| 2026-05-06 10:14 | 51.28457 | 6.77167 | 129 ft | 4 kts | 233° |
| 2026-05-06 10:14 | 51.28416 | 6.77082 | 127 ft | 12 kts | 233° |
| 2026-05-06 10:14 | 51.28360 | 6.76967 | 125 ft | 13 kts | 232° |
| 2026-05-06 10:15 | 51.28385 | 6.76852 | 128 ft | 13 kts | 321° |
| 2026-05-06 10:15 | 51.28460 | 6.76742 | 124 ft | 14 kts | 286° |
| 2026-05-06 10:15 | 51.28412 | 6.76614 | 124 ft | 15 kts | 232° |
| 2026-05-06 10:15 | 51.28330 | 6.76444 | 122 ft | 22 kts | 232° |
| 2026-05-06 10:16 | 51.28235 | 6.76243 | 128 ft | 24 kts | 233° |
| 2026-05-06 10:16 | 51.28132 | 6.76025 | 131 ft | 26 kts | 233° |
| 2026-05-06 10:16 | 51.28034 | 6.75821 | 125 ft | 16 kts | 232° |
| 2026-05-06 10:16 | 51.27957 | 6.75660 | 127 ft | 20 kts | 232° |
| 2026-05-06 10:17 | 51.27876 | 6.75490 | 126 ft | 19 kts | 232° |
| 2026-05-06 10:17 | 51.27862 | 6.75331 | 123 ft | 15 kts | 337° |
| 2026-05-06 10:17 | 51.27945 | 6.75266 | 121 ft | 5 kts | 334° |
| 2026-05-06 10:17 | 51.27960 | 6.75258 | 121 ft | 6 kts | 345° |
| 2026-05-06 10:18 | 51.28021 | 6.75326 | 125 ft | 22 kts | 51° |
| 2026-05-06 10:18 | 51.28242 | 6.75789 | 129 ft | 83 kts | 53° |
| 2026-05-06 10:18 | 51.28708 | 6.76766 | 126 ft | 137 kts | 53° |
| 2026-05-06 10:18 | 51.29327 | 6.78066 | 553 ft | 149 kts | 50° |
| 2026-05-06 10:19 | 51.29978 | 6.79370 | 1196 ft | 152 kts | 47° |
| 2026-05-06 10:19 | 51.30678 | 6.80642 | 1825 ft | 154 kts | 47° |
| 2026-05-06 10:19 | 51.31392 | 6.82009 | 2263 ft | 167 kts | 50° |
| 2026-05-06 10:19 | 51.32114 | 6.83536 | 2739 ft | 177 kts | 52° |
| 2026-05-06 10:20 | 51.32881 | 6.85201 | 3103 ft | 197 kts | 53° |
| 2026-05-06 10:20 | 51.33728 | 6.87097 | 3434 ft | 222 kts | 54° |
| 2026-05-06 10:20 | 51.34690 | 6.89194 | 3906 ft | 246 kts | 46° |
| 2026-05-06 10:20 | 51.36180 | 6.90703 | 4543 ft | 263 kts | 17° |
| 2026-05-06 10:21 | 51.38019 | 6.91173 | 5349 ft | 269 kts | 6° |
| 2026-05-06 10:21 | 51.39883 | 6.91597 | 6335 ft | 273 kts | 9° |
| 2026-05-06 10:21 | 51.41781 | 6.92114 | 7190 ft | 280 kts | 9° |
| 2026-05-06 10:21 | 51.43720 | 6.92668 | 8001 ft | 286 kts | 9° |
| 2026-05-06 10:22 | 51.45708 | 6.93191 | 8829 ft | 293 kts | 3° |
| 2026-05-06 10:22 | 51.47730 | 6.92886 | 9663 ft | 294 kts | 341° |
| 2026-05-06 10:22 | 51.49560 | 6.91428 | 10328 ft | 300 kts | 320° |
| 2026-05-06 10:22 | 51.50990 | 6.88885 | 10594 ft | 317 kts | 297° |
| 2026-05-06 10:23 | 51.51837 | 6.85569 | 11096 ft | 326 kts | 287° |
| 2026-05-06 10:23 | 51.52624 | 6.82128 | 11847 ft | 330 kts | 288° |
| 2026-05-06 10:23 | 51.53437 | 6.78660 | 12653 ft | 334 kts | 288° |
| 2026-05-06 10:23 | 51.54272 | 6.75156 | 13458 ft | 338 kts | 289° |
| 2026-05-06 10:24 | 51.55009 | 6.71584 | 14152 ft | 342 kts | 281° |
| 2026-05-06 10:24 | 51.55256 | 6.67758 | 14832 ft | 343 kts | 268° |
| 2026-05-06 10:24 | 51.54933 | 6.63945 | 15522 ft | 346 kts | 254° |
| 2026-05-06 10:24 | 51.54070 | 6.60339 | 16231 ft | 348 kts | 243° |
| 2026-05-06 10:25 | 51.52941 | 6.56868 | 16890 ft | 353 kts | 242° |
| 2026-05-06 10:25 | 51.51814 | 6.53400 | 17583 ft | 357 kts | 242° |
| 2026-05-06 10:25 | 51.50663 | 6.49848 | 18277 ft | 361 kts | 243° |
| 2026-05-06 10:25 | 51.49502 | 6.46265 | 18900 ft | 364 kts | 243° |
| 2026-05-06 10:26 | 51.48329 | 6.42643 | 19439 ft | 369 kts | 242° |
| 2026-05-06 10:26 | 51.47003 | 6.39093 | 19962 ft | 373 kts | 233° |
| 2026-05-06 10:26 | 51.45252 | 6.35998 | 20531 ft | 376 kts | 221° |
| 2026-05-06 10:26 | 51.43853 | 6.34251 | 20913 ft | 379 kts | 213° |
| 2026-05-06 10:27 | 51.41521 | 6.32261 | 21443 ft | 383 kts | 201° |
| 2026-05-06 10:27 | 51.39009 | 6.30781 | 21969 ft | 386 kts | 200° |
| 2026-05-06 10:27 | 51.36508 | 6.29322 | 22507 ft | 390 kts | 200° |
| 2026-05-06 10:27 | 51.33950 | 6.27820 | 23031 ft | 393 kts | 200° |
| 2026-05-06 10:28 | 51.31369 | 6.26298 | 23502 ft | 398 kts | 200° |
| 2026-05-06 10:28 | 51.28760 | 6.24762 | 23938 ft | 401 kts | 200° |
| 2026-05-06 10:28 | 51.26136 | 6.23221 | 24395 ft | 403 kts | 200° |
| 2026-05-06 10:28 | 51.23493 | 6.21670 | 24856 ft | 406 kts | 199° |
| 2026-05-06 10:29 | 51.20837 | 6.20112 | 25311 ft | 408 kts | 200° |
| 2026-05-06 10:29 | 51.18168 | 6.18549 | 25751 ft | 410 kts | 199° |
| 2026-05-06 10:29 | 51.15483 | 6.16981 | 26220 ft | 412 kts | 199° |
| 2026-05-06 10:29 | 51.12786 | 6.15410 | 26694 ft | 414 kts | 199° |
| 2026-05-06 10:30 | 51.10073 | 6.13831 | 27153 ft | 417 kts | 199° |
| 2026-05-06 10:30 | 51.07338 | 6.12245 | 27641 ft | 419 kts | 198° |
| 2026-05-06 10:30 | 51.04591 | 6.10652 | 28109 ft | 422 kts | 198° |
| 2026-05-06 10:30 | 51.01853 | 6.08912 | 28564 ft | 426 kts | 204° |
| 2026-05-06 10:31 | 50.99268 | 6.06570 | 29033 ft | 430 kts | 210° |
| 2026-05-06 10:31 | 50.96730 | 6.04046 | 29476 ft | 432 kts | 210° |
| 2026-05-06 10:31 | 50.94173 | 6.01518 | 29881 ft | 434 kts | 210° |
| 2026-05-06 10:31 | 50.91559 | 5.99086 | 30237 ft | 436 kts | 208° |
| 2026-05-06 10:32 | 50.88895 | 5.96778 | 30558 ft | 438 kts | 206° |
| 2026-05-06 10:32 | 50.86191 | 5.94533 | 30898 ft | 439 kts | 206° |
| 2026-05-06 10:32 | 50.83472 | 5.92314 | 31252 ft | 441 kts | 206° |
| 2026-05-06 10:32 | 50.80745 | 5.90081 | 31578 ft | 442 kts | 207° |
| 2026-05-06 10:33 | 50.78031 | 5.87808 | 32033 ft | 441 kts | 207° |
| 2026-05-06 10:33 | 50.75341 | 5.85505 | 32504 ft | 439 kts | 208° |
| 2026-05-06 10:33 | 50.72666 | 5.83187 | 32805 ft | 438 kts | 208° |
| 2026-05-06 10:33 | 50.70025 | 5.80886 | 32853 ft | 427 kts | 208° |
| 2026-05-06 10:34 | 50.64914 | 5.76450 | 32856 ft | 415 kts | 208° |
| 2026-05-06 10:34 | 50.59678 | 5.72717 | 32850 ft | 414 kts | 195° |
| 2026-05-06 10:35 | 50.53978 | 5.71915 | 32850 ft | 414 kts | 175° |
| 2026-05-06 10:35 | 50.48255 | 5.73021 | 32852 ft | 415 kts | 173° |
| 2026-05-06 10:36 | 50.42529 | 5.74120 | 32834 ft | 415 kts | 174° |
| 2026-05-06 10:36 | 50.36799 | 5.75201 | 32833 ft | 414 kts | 173° |
| 2026-05-06 10:37 | 50.31086 | 5.76290 | 32827 ft | 414 kts | 173° |
| 2026-05-06 10:37 | 50.25383 | 5.77444 | 32825 ft | 414 kts | 169° |
| 2026-05-06 10:38 | 50.19824 | 5.79811 | 32828 ft | 414 kts | 165° |
| 2026-05-06 10:38 | 50.14291 | 5.82280 | 32824 ft | 414 kts | 165° |
| 2026-05-06 10:39 | 50.08748 | 5.84753 | 32817 ft | 414 kts | 165° |
| 2026-05-06 10:39 | 50.03206 | 5.87191 | 32818 ft | 414 kts | 165° |
| 2026-05-06 10:40 | 49.97713 | 5.89611 | 32822 ft | 413 kts | 165° |
| 2026-05-06 10:40 | 49.92197 | 5.92054 | 32812 ft | 411 kts | 166° |
| 2026-05-06 10:41 | 49.86676 | 5.94498 | 32818 ft | 409 kts | 166° |
| 2026-05-06 10:41 | 49.81244 | 5.96880 | 32807 ft | 408 kts | 166° |
| 2026-05-06 10:42 | 49.75787 | 5.99253 | 32807 ft | 407 kts | 166° |
| 2026-05-06 10:42 | 49.70345 | 6.01627 | 32807 ft | 406 kts | 166° |
| 2026-05-06 10:43 | 49.64876 | 6.04024 | 32806 ft | 406 kts | 166° |
| 2026-05-06 10:44 | 49.56762 | 6.07554 | 32803 ft | 405 kts | 166° |
| 2026-05-06 10:44 | 49.51334 | 6.09894 | 32800 ft | 405 kts | 167° |
| 2026-05-06 10:45 | 49.46172 | 6.13402 | 32799 ft | 411 kts | 148° |
| 2026-05-06 10:45 | 49.41684 | 6.18892 | 32798 ft | 414 kts | 143° |
| 2026-05-06 10:46 | 49.37214 | 6.24434 | 32800 ft | 413 kts | 144° |
| 2026-05-06 10:46 | 49.32750 | 6.29937 | 32814 ft | 410 kts | 144° |
| 2026-05-06 10:47 | 49.28322 | 6.35403 | 32819 ft | 408 kts | 144° |
| 2026-05-06 10:47 | 49.23909 | 6.40827 | 32825 ft | 406 kts | 145° |
| 2026-05-06 10:48 | 49.19500 | 6.46218 | 32831 ft | 406 kts | 145° |
| 2026-05-06 10:48 | 49.15100 | 6.51590 | 32826 ft | 403 kts | 145° |
| 2026-05-06 10:49 | 49.10715 | 6.56941 | 32822 ft | 404 kts | 144° |
| 2026-05-06 10:49 | 49.06335 | 6.62278 | 32797 ft | 402 kts | 144° |
| 2026-05-06 10:50 | 49.01937 | 6.67542 | 32802 ft | 400 kts | 149° |
| 2026-05-06 10:50 | 48.96931 | 6.70866 | 32793 ft | 391 kts | 169° |
| 2026-05-06 10:51 | 48.91532 | 6.71344 | 32793 ft | 389 kts | 182° |
| 2026-05-06 10:51 | 48.86104 | 6.71123 | 32783 ft | 390 kts | 182° |
| 2026-05-06 10:52 | 48.80661 | 6.70921 | 32777 ft | 392 kts | 182° |
| 2026-05-06 10:52 | 48.75191 | 6.70708 | 32778 ft | 393 kts | 182° |
| 2026-05-06 10:53 | 48.69725 | 6.70491 | 32772 ft | 393 kts | 182° |
| 2026-05-06 10:53 | 48.64249 | 6.70270 | 32777 ft | 395 kts | 182° |
| 2026-05-06 10:54 | 48.58752 | 6.70065 | 32787 ft | 395 kts | 182° |
| 2026-05-06 10:54 | 48.53297 | 6.69863 | 32791 ft | 395 kts | 182° |
| 2026-05-06 10:55 | 48.47803 | 6.69654 | 32798 ft | 395 kts | 182° |
| 2026-05-06 10:55 | 48.42301 | 6.69432 | 32807 ft | 395 kts | 182° |
| 2026-05-06 10:56 | 48.36813 | 6.69218 | 32806 ft | 395 kts | 182° |
| 2026-05-06 10:56 | 48.31331 | 6.69008 | 32803 ft | 394 kts | 182° |
| 2026-05-06 10:57 | 48.25848 | 6.68796 | 32807 ft | 394 kts | 182° |
| 2026-05-06 10:57 | 48.20374 | 6.68579 | 32812 ft | 394 kts | 182° |
| 2026-05-06 10:58 | 48.14897 | 6.68376 | 32813 ft | 394 kts | 182° |
| 2026-05-06 10:58 | 48.09423 | 6.68170 | 32820 ft | 394 kts | 182° |
| 2026-05-06 10:59 | 48.03950 | 6.67959 | 32819 ft | 393 kts | 182° |
| 2026-05-06 10:59 | 47.98484 | 6.67746 | 32824 ft | 393 kts | 182° |
| 2026-05-06 11:00 | 47.93010 | 6.67540 | 32829 ft | 394 kts | 182° |
| 2026-05-06 11:00 | 47.87536 | 6.67333 | 32833 ft | 393 kts | 182° |
| 2026-05-06 11:01 | 47.82072 | 6.67130 | 32840 ft | 393 kts | 182° |
| 2026-05-06 11:01 | 47.76607 | 6.66921 | 32848 ft | 393 kts | 182° |
| 2026-05-06 11:02 | 47.71152 | 6.66711 | 32846 ft | 392 kts | 183° |
| 2026-05-06 11:02 | 47.65703 | 6.66499 | 32854 ft | 392 kts | 182° |
| 2026-05-06 11:03 | 47.60255 | 6.66310 | 32860 ft | 391 kts | 183° |
| 2026-05-06 11:03 | 47.54821 | 6.66118 | 32851 ft | 390 kts | 183° |
| 2026-05-06 11:04 | 47.49400 | 6.65908 | 32843 ft | 390 kts | 183° |
| 2026-05-06 11:04 | 47.43972 | 6.65696 | 32846 ft | 390 kts | 183° |
| 2026-05-06 11:05 | 47.38542 | 6.65486 | 32848 ft | 391 kts | 183° |
| 2026-05-06 11:05 | 47.33127 | 6.65299 | 32855 ft | 388 kts | 183° |
| 2026-05-06 11:06 | 47.27746 | 6.65113 | 32869 ft | 386 kts | 183° |
| 2026-05-06 11:06 | 47.22471 | 6.64099 | 32868 ft | 383 kts | 199° |
| 2026-05-06 11:07 | 47.17846 | 6.60289 | 32901 ft | 384 kts | 219° |
| 2026-05-06 11:07 | 47.13860 | 6.55034 | 32536 ft | 395 kts | 220° |
| 2026-05-06 11:07 | 47.11774 | 6.52293 | 32277 ft | 410 kts | 220° |
| 2026-05-06 11:08 | 47.09618 | 6.49465 | 32010 ft | 418 kts | 220° |
| 2026-05-06 11:08 | 47.07413 | 6.46576 | 31749 ft | 420 kts | 219° |
| 2026-05-06 11:08 | 47.05261 | 6.43758 | 31497 ft | 420 kts | 219° |
| 2026-05-06 11:08 | 47.03063 | 6.40877 | 31256 ft | 420 kts | 220° |
| 2026-05-06 11:09 | 47.00879 | 6.38016 | 30990 ft | 419 kts | 219° |
| 2026-05-06 11:09 | 46.98706 | 6.35181 | 30706 ft | 417 kts | 219° |
| 2026-05-06 11:09 | 46.96563 | 6.32388 | 29886 ft | 421 kts | 219° |
| 2026-05-06 11:09 | 46.94378 | 6.29544 | 29047 ft | 421 kts | 219° |
| 2026-05-06 11:10 | 46.92188 | 6.26695 | 28325 ft | 421 kts | 219° |
| 2026-05-06 11:10 | 46.90013 | 6.23875 | 27667 ft | 417 kts | 219° |
| 2026-05-06 11:10 | 46.87855 | 6.21063 | 27003 ft | 412 kts | 219° |
| 2026-05-06 11:10 | 46.85714 | 6.18279 | 26312 ft | 411 kts | 219° |
| 2026-05-06 11:11 | 46.83592 | 6.15528 | 25620 ft | 406 kts | 219° |
| 2026-05-06 11:11 | 46.81474 | 6.12788 | 24948 ft | 406 kts | 219° |
| 2026-05-06 11:11 | 46.79368 | 6.10059 | 24438 ft | 403 kts | 219° |
| 2026-05-06 11:11 | 46.77281 | 6.07349 | 23877 ft | 400 kts | 218° |
| 2026-05-06 11:12 | 46.75203 | 6.04666 | 23302 ft | 398 kts | 219° |
| 2026-05-06 11:12 | 46.73807 | 6.02871 | 22919 ft | 396 kts | 219° |
| 2026-05-06 11:12 | 46.71748 | 6.00225 | 22379 ft | 392 kts | 219° |
| 2026-05-06 11:12 | 46.69707 | 5.97605 | 21817 ft | 389 kts | 219° |
| 2026-05-06 11:13 | 46.67553 | 5.95289 | 21284 ft | 382 kts | 207° |
| 2026-05-06 11:13 | 46.65134 | 5.93799 | 20782 ft | 375 kts | 194° |
| 2026-05-06 11:13 | 46.62587 | 5.93151 | 20271 ft | 370 kts | 185° |
| 2026-05-06 11:13 | 46.60069 | 5.92755 | 19705 ft | 368 kts | 185° |
| 2026-05-06 11:14 | 46.57535 | 5.92346 | 19166 ft | 365 kts | 186° |
| 2026-05-06 11:14 | 46.54986 | 5.91933 | 18605 ft | 363 kts | 186° |
| 2026-05-06 11:14 | 46.52517 | 5.91538 | 18077 ft | 360 kts | 186° |
| 2026-05-06 11:14 | 46.50000 | 5.91137 | 17505 ft | 357 kts | 187° |
| 2026-05-06 11:15 | 46.47581 | 5.90752 | 16982 ft | 353 kts | 187° |
| 2026-05-06 11:15 | 46.45116 | 5.90356 | 16348 ft | 351 kts | 187° |
| 2026-05-06 11:15 | 46.42730 | 5.89969 | 15739 ft | 349 kts | 187° |
| 2026-05-06 11:15 | 46.40293 | 5.89573 | 15143 ft | 346 kts | 188° |
| 2026-05-06 11:16 | 46.37909 | 5.89187 | 14573 ft | 344 kts | 188° |
| 2026-05-06 11:16 | 46.35533 | 5.88810 | 14006 ft | 342 kts | 188° |
| 2026-05-06 11:16 | 46.33194 | 5.88301 | 13419 ft | 338 kts | 197° |
| 2026-05-06 11:16 | 46.31073 | 5.86945 | 12790 ft | 332 kts | 214° |
| 2026-05-06 11:17 | 46.29348 | 5.84755 | 12178 ft | 329 kts | 231° |
| 2026-05-06 11:17 | 46.28144 | 5.81987 | 11620 ft | 324 kts | 244° |
| 2026-05-06 11:17 | 46.27133 | 5.79091 | 11040 ft | 321 kts | 244° |
| 2026-05-06 11:17 | 46.26123 | 5.76229 | 10454 ft | 318 kts | 244° |
| 2026-05-06 11:18 | 46.25115 | 5.73383 | 9904 ft | 317 kts | 244° |
| 2026-05-06 11:18 | 46.24114 | 5.70565 | 9303 ft | 315 kts | 244° |
| 2026-05-06 11:18 | 46.23118 | 5.67762 | 8842 ft | 311 kts | 244° |
| 2026-05-06 11:18 | 46.22157 | 5.65052 | 8691 ft | 296 kts | 244° |
| 2026-05-06 11:19 | 46.21240 | 5.62473 | 8546 ft | 282 kts | 244° |
| 2026-05-06 11:19 | 46.20364 | 5.60016 | 8405 ft | 269 kts | 245° |
| 2026-05-06 11:19 | 46.19519 | 5.57640 | 8092 ft | 263 kts | 244° |
| 2026-05-06 11:19 | 46.18684 | 5.55292 | 7750 ft | 263 kts | 244° |
| 2026-05-06 11:20 | 46.17843 | 5.52941 | 7597 ft | 264 kts | 244° |
| 2026-05-06 11:20 | 46.16994 | 5.50588 | 7477 ft | 266 kts | 243° |
| 2026-05-06 11:20 | 46.16149 | 5.48237 | 7328 ft | 269 kts | 244° |
| 2026-05-06 11:20 | 46.15296 | 5.45834 | 7198 ft | 270 kts | 245° |
| 2026-05-06 11:21 | 46.14445 | 5.43429 | 7045 ft | 266 kts | 244° |
| 2026-05-06 11:21 | 46.13613 | 5.41087 | 6722 ft | 262 kts | 244° |
| 2026-05-06 11:21 | 46.12781 | 5.38755 | 6401 ft | 260 kts | 244° |
| 2026-05-06 11:21 | 46.11952 | 5.36440 | 6030 ft | 260 kts | 244° |
| 2026-05-06 11:22 | 46.11126 | 5.34134 | 5659 ft | 259 kts | 244° |
| 2026-05-06 11:22 | 46.10286 | 5.31851 | 5320 ft | 258 kts | 242° |
| 2026-05-06 11:22 | 46.09383 | 5.29619 | 4976 ft | 257 kts | 240° |
| 2026-05-06 11:22 | 46.08459 | 5.27423 | 4684 ft | 254 kts | 240° |
| 2026-05-06 11:23 | 46.07536 | 5.25248 | 4483 ft | 255 kts | 240° |
| 2026-05-06 11:23 | 46.06612 | 5.23062 | 4313 ft | 255 kts | 240° |
| 2026-05-06 11:23 | 46.05688 | 5.20881 | 4135 ft | 255 kts | 240° |
| 2026-05-06 11:23 | 46.04765 | 5.18696 | 3940 ft | 256 kts | 240° |
| 2026-05-06 11:24 | 46.03841 | 5.16499 | 3770 ft | 258 kts | 240° |
| 2026-05-06 11:24 | 46.02917 | 5.14290 | 3590 ft | 256 kts | 240° |
| 2026-05-06 11:24 | 46.02007 | 5.12106 | 3408 ft | 251 kts | 240° |
| 2026-05-06 11:24 | 46.01120 | 5.09985 | 3233 ft | 243 kts | 240° |
| 2026-05-06 11:25 | 46.00205 | 5.07991 | 3082 ft | 235 kts | 229° |
| 2026-05-06 11:25 | 45.98926 | 5.06626 | 2996 ft | 224 kts | 206° |
| 2026-05-06 11:25 | 45.97457 | 5.06118 | 2999 ft | 214 kts | 183° |
| 2026-05-06 11:25 | 45.96009 | 5.06192 | 3000 ft | 202 kts | 180° |
| 2026-05-06 11:26 | 45.94635 | 5.06274 | 3005 ft | 196 kts | 178° |
| 2026-05-06 11:26 | 45.93271 | 5.06356 | 3010 ft | 196 kts | 179° |
| 2026-05-06 11:26 | 45.91905 | 5.06465 | 3000 ft | 197 kts | 176° |
| 2026-05-06 11:26 | 45.90545 | 5.06628 | 3002 ft | 196 kts | 176° |
| 2026-05-06 11:27 | 45.89186 | 5.06802 | 3002 ft | 196 kts | 176° |
| 2026-05-06 11:27 | 45.87825 | 5.06976 | 3007 ft | 196 kts | 176° |
| 2026-05-06 11:27 | 45.86489 | 5.07141 | 3039 ft | 184 kts | 177° |
| 2026-05-06 11:27 | 45.85249 | 5.07297 | 2888 ft | 177 kts | 176° |
| 2026-05-06 11:28 | 45.84034 | 5.07450 | 2603 ft | 175 kts | 176° |
| 2026-05-06 11:28 | 45.82863 | 5.07595 | 2382 ft | 162 kts | 175° |
| 2026-05-06 11:28 | 45.81795 | 5.07726 | 2177 ft | 144 kts | 175° |
| 2026-05-06 11:28 | 45.80836 | 5.07842 | 1992 ft | 133 kts | 174° |
| 2026-05-06 11:29 | 45.79922 | 5.07950 | 1811 ft | 129 kts | 175° |
| 2026-05-06 11:29 | 45.79036 | 5.08058 | 1640 ft | 127 kts | 174° |
| 2026-05-06 11:29 | 45.78148 | 5.08170 | 1464 ft | 129 kts | 175° |
| 2026-05-06 11:29 | 45.77258 | 5.08277 | 1300 ft | 129 kts | 174° |
| 2026-05-06 11:30 | 45.76359 | 5.08379 | 1120 ft | 130 kts | 174° |
| 2026-05-06 11:30 | 45.75456 | 5.08490 | 960 ft | 130 kts | 174° |
| 2026-05-06 11:30 | 45.74553 | 5.08610 | 800 ft | 130 kts | 174° |
| 2026-05-06 11:30 | 45.73737 | 5.08716 | 775 ft | 91 kts | 175° |
| 2026-05-06 11:31 | 45.73336 | 5.08758 | 786 ft | 42 kts | 175° |
| 2026-05-06 11:31 | 45.73045 | 5.08794 | 790 ft | 42 kts | 174° |
| 2026-05-06 11:31 | 45.72756 | 5.08830 | 791 ft | 42 kts | 175° |
| 2026-05-06 11:31 | 45.72470 | 5.08864 | 794 ft | 40 kts | 175° |
| 2026-05-06 11:32 | 45.72201 | 5.08897 | 803 ft | 37 kts | 175° |
| 2026-05-06 11:32 | 45.71955 | 5.08927 | 811 ft | 35 kts | 175° |
| 2026-05-06 11:32 | 45.71731 | 5.08955 | 812 ft | 21 kts | 175° |
| 2026-05-06 11:32 | 45.71629 | 5.08923 | 815 ft | 14 kts | 225° |
| 2026-05-06 11:33 | 45.71610 | 5.08769 | 810 ft | 19 kts | 264° |
| 2026-05-06 11:33 | 45.71592 | 5.08553 | 804 ft | 21 kts | 251° |
| 2026-05-06 11:33 | 45.71459 | 5.08521 | 806 ft | 19 kts | 182° |
| 2026-05-06 11:33 | 45.71409 | 5.08355 | 804 ft | 22 kts | 265° |
| 2026-05-06 11:34 | 45.71434 | 5.08155 | 802 ft | 19 kts | 284° |
| 2026-05-06 11:34 | 45.71497 | 5.08009 | 800 ft | 18 kts | 15° |
| 2026-05-06 11:34 | 45.71610 | 5.08020 | 798 ft | 17 kts | 320° |
| 2026-05-06 11:34 | 45.71625 | 5.07911 | 797 ft | 7 kts | 278° |
| 2026-05-06 11:35 | 45.71625 | 5.07903 | 797 ft | 0 kts | 278° |